createdAt,value
2022-11-16T00:00:10.959Z,100500.60
2022-11-16T00:03:04.221Z,100495.40
2022-11-16T00:05:33.148Z,100493.20
2022-11-16T00:08:02.247Z,100494.80
2022-11-16T00:10:31.237Z,100484.20
2022-11-16T00:13:00.336Z,100471.60
2022-11-16T00:15:29.229Z,100473.80
2022-11-16T00:17:58.223Z,100468.80
2022-11-16T00:20:27.320Z,100462.60
2022-11-16T00:22:56.311Z,100463.00
2022-11-16T00:25:25.410Z,100458.40
2022-11-16T00:27:54.299Z,100447.60
2022-11-16T00:30:23.498Z,100447.20
2022-11-16T00:32:52.598Z,100452.00
2022-11-16T00:35:21.793Z,100452.40
2022-11-16T00:37:52.466Z,100450.80
2022-11-16T00:40:21.522Z,100441.60
2022-11-16T00:42:51.335Z,100442.40
2022-11-16T00:45:20.328Z,100434.80
2022-11-16T00:47:49.323Z,100431.00
2022-11-16T00:50:18.518Z,100426.60
2022-11-16T00:52:47.618Z,100421.00
2022-11-16T00:55:17.535Z,100426.80
2022-11-16T00:57:46.734Z,100424.80
2022-11-16T01:00:17.842Z,100424.80
2022-11-16T01:02:47.075Z,100421.80
2022-11-16T01:05:16.110Z,100420.80
2022-11-16T01:07:45.270Z,100417.80
2022-11-16T01:10:18.971Z,100413.40
2022-11-16T01:12:50.195Z,100408.20
2022-11-16T01:15:22.801Z,100403.00
2022-11-16T01:17:54.792Z,100404.60
2022-11-16T01:20:28.108Z,100397.60
2022-11-16T01:22:57.471Z,100396.00
2022-11-16T01:25:26.762Z,100391.40
2022-11-16T01:27:55.754Z,100396.00
2022-11-16T01:30:32.429Z,100391.40
2022-11-16T01:33:05.621Z,100396.60
2022-11-16T01:35:35.024Z,100392.60
2022-11-16T01:38:05.576Z,100389.00
2022-11-16T01:40:38.063Z,100388.00
2022-11-16T01:43:24.330Z,100389.40
2022-11-16T01:45:55.475Z,100386.60
2022-11-16T01:48:30.561Z,100382.40
2022-11-16T01:51:00.529Z,100381.60
2022-11-16T01:53:31.367Z,100375.60
2022-11-16T01:56:00.771Z,100376.00
2022-11-16T01:58:47.648Z,100372.80
2022-11-16T02:01:22.760Z,100367.20
2022-11-16T02:03:54.242Z,100369.40
2022-11-16T02:07:00.392Z,100364.80
2022-11-16T02:10:37.931Z,100356.80
2022-11-16T02:13:43.382Z,100352.00
2022-11-16T02:17:03.268Z,100344.20
2022-11-16T02:20:09.840Z,100340.40
2022-11-16T02:22:44.772Z,100341.00
2022-11-16T02:26:00.054Z,100334.80
2022-11-16T02:29:13.283Z,100336.80
2022-11-16T02:31:51.925Z,100318.20
2022-11-16T02:34:23.106Z,100318.40
2022-11-16T02:36:54.770Z,100314.20
2022-11-16T02:39:28.018Z,100308.60
2022-11-16T02:41:59.816Z,100306.40
2022-11-16T02:44:35.875Z,100305.00
2022-11-16T02:47:10.163Z,100305.00
2022-11-16T02:49:45.379Z,100304.20
2022-11-16T02:52:16.338Z,100300.20
2022-11-16T02:54:44.905Z,100296.20
2022-11-16T02:57:31.105Z,100299.40
2022-11-16T03:00:01.328Z,100305.40
2022-11-16T03:02:59.812Z,100302.80
2022-11-16T03:05:48.568Z,100305.00
2022-11-16T03:08:42.444Z,100298.60
2022-11-16T03:11:45.537Z,100296.80
2022-11-16T03:14:19.613Z,100295.40
2022-11-16T03:16:53.070Z,100297.40
2022-11-16T03:20:12.218Z,100297.20
2022-11-16T03:22:47.562Z,100304.80
2022-11-16T03:25:24.395Z,100296.60
2022-11-16T03:28:12.788Z,100299.40
2022-11-16T03:30:51.200Z,100295.80
2022-11-16T03:33:29.208Z,100295.20
2022-11-16T03:36:48.074Z,100293.20
2022-11-16T03:39:25.843Z,100285.20
2022-11-16T03:41:57.395Z,100288.40
2022-11-16T03:44:27.035Z,100284.20
2022-11-16T03:46:55.720Z,100277.20
2022-11-16T03:49:24.923Z,100273.20
2022-11-16T03:51:54.834Z,100265.60
2022-11-16T03:54:24.273Z,100269.80
2022-11-16T03:56:52.924Z,100270.40
2022-11-16T03:59:22.845Z,100269.80
2022-11-16T04:01:51.324Z,100268.80
2022-11-16T04:04:39.268Z,100269.20
2022-11-16T04:07:28.069Z,100269.00
2022-11-16T04:10:15.443Z,100268.40
2022-11-16T04:13:03.791Z,100267.40
2022-11-16T04:15:51.013Z,100270.80
2022-11-16T04:18:38.031Z,100269.00
2022-11-16T04:21:37.846Z,100278.60
2022-11-16T04:24:15.545Z,100279.40
2022-11-16T04:27:08.501Z,100275.40
2022-11-16T04:29:38.007Z,100273.20
2022-11-16T04:32:26.560Z,100265.40
2022-11-16T04:35:14.396Z,100265.00
2022-11-16T04:37:49.333Z,100262.80
2022-11-16T04:40:25.314Z,100262.20
2022-11-16T04:42:57.322Z,100261.80
2022-11-16T04:45:46.623Z,100259.00
2022-11-16T04:48:18.638Z,100258.80
2022-11-16T04:50:48.300Z,100263.80
2022-11-16T04:53:17.699Z,100263.40
2022-11-16T04:55:52.236Z,100258.80
2022-11-16T04:58:22.242Z,100257.80
2022-11-16T05:00:51.237Z,100255.40
2022-11-16T05:03:20.027Z,100258.80
2022-11-16T05:05:50.454Z,100258.00
2022-11-16T05:08:19.144Z,100261.60
2022-11-16T05:10:51.652Z,100258.40
2022-11-16T05:13:20.507Z,100257.80
2022-11-16T05:15:50.321Z,100252.40
2022-11-16T05:18:19.624Z,100251.20
2022-11-16T05:21:01.724Z,100250.40
2022-11-16T05:23:58.877Z,100247.80
2022-11-16T05:26:30.534Z,100245.60
2022-11-16T05:28:59.222Z,100242.00
2022-11-16T05:31:28.114Z,100240.40
2022-11-16T05:33:56.903Z,100236.80
2022-11-16T05:36:26.100Z,100236.80
2022-11-16T05:38:56.408Z,100236.00
2022-11-16T05:41:27.469Z,100241.00
2022-11-16T05:43:56.379Z,100243.40
2022-11-16T05:46:25.969Z,100245.80
2022-11-16T05:48:56.807Z,100245.40
2022-11-16T05:51:25.697Z,100245.40
2022-11-16T05:53:55.408Z,100243.00
2022-11-16T05:56:24.650Z,100247.40
2022-11-16T05:58:55.239Z,100240.00
2022-11-16T06:01:24.953Z,100245.00
2022-11-16T06:03:54.323Z,100247.40
2022-11-16T06:06:22.837Z,100248.40
2022-11-16T06:08:51.831Z,100252.20
2022-11-16T06:11:24.893Z,100249.60
2022-11-16T06:13:53.908Z,100249.60
2022-11-16T06:16:22.603Z,100253.40
2022-11-16T06:18:51.186Z,100255.60
2022-11-16T06:21:20.796Z,100253.60
2022-11-16T06:23:49.786Z,100255.00
2022-11-16T06:26:18.372Z,100252.40
2022-11-16T06:28:47.469Z,100247.40
2022-11-16T06:31:16.361Z,100246.00
2022-11-16T06:33:46.173Z,100250.60
2022-11-16T06:36:22.543Z,100251.80
2022-11-16T06:38:51.533Z,100250.60
2022-11-16T06:41:21.048Z,100251.60
2022-11-16T06:43:50.855Z,100255.80
2022-11-16T06:46:21.588Z,100252.60
2022-11-16T06:48:50.174Z,100256.40
2022-11-16T06:51:19.267Z,100256.40
2022-11-16T06:53:48.160Z,100259.20
2022-11-16T06:56:17.263Z,100256.00
2022-11-16T06:58:53.303Z,100258.40
2022-11-16T07:01:22.657Z,100261.00
2022-11-16T07:03:51.816Z,100256.00
2022-11-16T07:06:20.502Z,100259.80
2022-11-16T07:08:49.088Z,100260.80
2022-11-16T07:11:20.642Z,100261.20
2022-11-16T07:13:49.634Z,100268.00
2022-11-16T07:16:18.431Z,100269.80
2022-11-16T07:18:53.149Z,100266.40
2022-11-16T07:21:21.738Z,100267.00
2022-11-16T07:23:50.607Z,100273.80
2022-11-16T07:26:21.370Z,100288.00
2022-11-16T07:28:54.453Z,100278.60
2022-11-16T07:31:23.974Z,100286.40
2022-11-16T07:34:12.774Z,100283.60
2022-11-16T07:37:04.655Z,100291.60
2022-11-16T07:39:34.670Z,100300.20
2022-11-16T07:42:03.661Z,100297.40
2022-11-16T07:45:01.958Z,100296.40
2022-11-16T07:47:37.629Z,100295.20
2022-11-16T07:50:07.814Z,100297.20
2022-11-16T07:52:36.808Z,100291.40
2022-11-16T07:55:13.175Z,100294.60
2022-11-16T07:57:42.783Z,100292.20
2022-11-16T08:00:12.349Z,100292.40
2022-11-16T08:02:46.098Z,100297.20
2022-11-16T08:05:19.392Z,100302.40
2022-11-16T08:07:50.248Z,100302.40
2022-11-16T08:10:21.967Z,100310.00
2022-11-16T08:12:50.675Z,100301.80
2022-11-16T08:15:20.286Z,100305.20
2022-11-16T08:17:49.177Z,100304.80
2022-11-16T08:20:18.785Z,100301.80
2022-11-16T08:22:50.047Z,100307.00
2022-11-16T08:25:19.961Z,100312.80
2022-11-16T08:27:48.739Z,100303.20
2022-11-16T08:30:18.879Z,100304.60
2022-11-16T08:32:47.747Z,100309.00
2022-11-16T08:35:16.845Z,100308.80
2022-11-16T08:37:45.940Z,100304.20
2022-11-16T08:40:15.377Z,100302.80
2022-11-16T08:42:44.328Z,100302.40
2022-11-16T08:45:13.756Z,100302.40
2022-11-16T08:47:42.637Z,100301.20
2022-11-16T08:50:11.430Z,100305.00
2022-11-16T08:52:40.111Z,100299.60
2022-11-16T08:55:10.595Z,100300.20
2022-11-16T08:57:39.327Z,100301.60
2022-11-16T09:00:12.312Z,100305.20
2022-11-16T09:02:40.901Z,100304.00
2022-11-16T09:05:12.184Z,100307.60
2022-11-16T09:07:43.702Z,100311.00
2022-11-16T09:10:13.193Z,100306.00
2022-11-16T09:12:42.102Z,100303.00
2022-11-16T09:15:10.684Z,100309.80
2022-11-16T09:17:39.267Z,100312.20
2022-11-16T09:20:09.396Z,100313.60
2022-11-16T09:22:37.971Z,100314.40
2022-11-16T09:25:08.017Z,100317.60
2022-11-16T09:27:36.675Z,100313.00
2022-11-16T09:30:06.570Z,100318.00
2022-11-16T09:32:35.074Z,100321.80
2022-11-16T09:35:03.970Z,100316.00
2022-11-16T09:37:32.506Z,100309.80
2022-11-16T09:40:01.132Z,100310.80
2022-11-16T09:43:07.093Z,100307.80
2022-11-16T09:45:54.109Z,100305.40
2022-11-16T09:48:24.129Z,100304.80
2022-11-16T09:51:07.768Z,100306.20
2022-11-16T09:53:40.548Z,100300.60
2022-11-16T09:56:33.538Z,100301.40
2022-11-16T09:59:08.805Z,100304.40
2022-11-16T10:02:17.265Z,100297.60
2022-11-16T10:05:24.563Z,100290.40
2022-11-16T10:08:04.819Z,100286.40
2022-11-16T10:10:43.237Z,100282.40
2022-11-16T10:13:42.228Z,100278.80
2022-11-16T10:16:16.863Z,100272.60
2022-11-16T10:18:56.395Z,100268.20
2022-11-16T10:22:22.019Z,100262.00
2022-11-16T10:25:07.498Z,100252.00
2022-11-16T10:28:03.735Z,100256.20
2022-11-16T10:30:42.865Z,100254.20
2022-11-16T10:33:16.876Z,100247.80
2022-11-16T10:35:54.317Z,100241.20
2022-11-16T10:38:30.560Z,100237.20
2022-11-16T10:41:26.971Z,100236.60
2022-11-16T10:43:59.298Z,100232.80
2022-11-16T10:46:44.448Z,100231.00
2022-11-16T10:49:25.592Z,100232.80
2022-11-16T10:51:54.278Z,100222.00
2022-11-16T10:54:22.761Z,100218.20
2022-11-16T10:57:15.308Z,100218.40
2022-11-16T10:59:50.259Z,100216.20
2022-11-16T11:02:25.078Z,100209.20
2022-11-16T11:05:20.976Z,100207.00
2022-11-16T11:07:59.768Z,100204.80
2022-11-16T11:10:31.924Z,100200.20
2022-11-16T11:13:08.459Z,100200.80
2022-11-16T11:15:42.600Z,100188.00
2022-11-16T11:18:24.478Z,100189.40
2022-11-16T11:21:21.214Z,100191.40
2022-11-16T11:23:53.324Z,100190.20
2022-11-16T11:26:41.525Z,100185.80
2022-11-16T11:29:22.121Z,100181.20
2022-11-16T11:31:54.933Z,100184.80
2022-11-16T11:34:32.530Z,100179.20
2022-11-16T11:37:04.031Z,100174.20
2022-11-16T11:39:37.308Z,100173.00
2022-11-16T11:42:15.121Z,100161.60
2022-11-16T11:44:49.541Z,100168.40
2022-11-16T11:48:00.565Z,100160.80
2022-11-16T11:50:55.829Z,100158.40
2022-11-16T11:53:57.081Z,100161.40
2022-11-16T11:56:27.820Z,100162.80
2022-11-16T11:58:56.912Z,100162.00
2022-11-16T12:02:19.258Z,100160.60
2022-11-16T12:05:06.170Z,100158.20
2022-11-16T12:07:56.160Z,100164.60
2022-11-16T12:10:47.277Z,100160.60
2022-11-16T12:13:40.638Z,100162.40
2022-11-16T12:17:07.488Z,100177.40
2022-11-16T12:20:06.588Z,100170.60
2022-11-16T12:23:27.709Z,100178.00
2022-11-16T12:26:11.544Z,100175.40
2022-11-16T12:29:27.335Z,100174.80
2022-11-16T12:32:23.265Z,100178.60
2022-11-16T12:35:29.428Z,100169.80
2022-11-16T12:38:34.569Z,100166.40
2022-11-16T12:41:58.869Z,100166.60
2022-11-16T12:44:37.483Z,100174.80
2022-11-16T12:47:30.964Z,100179.80
2022-11-16T12:50:50.646Z,100187.00
2022-11-16T12:53:46.760Z,100179.60
2022-11-16T12:56:26.199Z,100178.00
2022-11-16T12:59:16.698Z,100177.60
2022-11-16T13:02:24.092Z,100176.80
2022-11-16T13:05:02.104Z,100180.60
2022-11-16T13:07:41.531Z,100179.20
2022-11-16T13:10:19.180Z,100179.00
2022-11-16T13:13:08.976Z,100179.60
2022-11-16T13:15:46.445Z,100182.60
2022-11-16T13:18:20.025Z,100184.00
2022-11-16T13:21:12.028Z,100184.40
2022-11-16T13:23:53.326Z,100189.20
2022-11-16T13:27:08.912Z,100188.00
2022-11-16T13:29:55.723Z,100184.40
2022-11-16T13:32:40.596Z,100181.20
2022-11-16T13:35:17.353Z,100188.00
2022-11-16T13:37:52.230Z,100189.20
2022-11-16T13:40:28.422Z,100184.00
2022-11-16T13:43:10.257Z,100186.00
2022-11-16T13:45:50.719Z,100187.60
2022-11-16T13:48:36.299Z,100190.80
2022-11-16T13:51:19.939Z,100182.40
2022-11-16T13:56:52.231Z,100179.80
2022-11-16T13:59:30.852Z,100176.00
2022-11-16T14:02:29.234Z,100176.80
2022-11-16T14:05:05.042Z,100172.00
2022-11-16T14:07:52.112Z,100174.40
2022-11-16T14:10:53.356Z,100172.80
2022-11-16T14:13:44.572Z,100174.80
2022-11-16T14:16:22.808Z,100173.60
2022-11-16T14:19:00.641Z,100171.00
2022-11-16T14:22:00.401Z,100168.60
2022-11-16T14:25:32.174Z,100171.20
2022-11-16T14:28:38.343Z,100169.60
2022-11-16T14:31:29.649Z,100163.20
2022-11-16T14:34:01.140Z,100166.20
2022-11-16T14:36:49.044Z,100153.40
2022-11-16T14:39:27.049Z,100157.20
2022-11-16T14:42:15.395Z,100157.00
2022-11-16T14:44:44.594Z,100160.00
2022-11-16T14:47:39.801Z,100156.60
2022-11-16T14:50:23.449Z,100154.20
2022-11-16T14:52:57.449Z,100159.00
2022-11-16T14:55:27.544Z,100157.60
2022-11-16T14:58:14.380Z,100154.00
2022-11-16T15:00:54.074Z,100159.00
2022-11-16T15:03:27.372Z,100158.80
2022-11-16T15:06:04.960Z,100157.20
2022-11-16T15:08:48.519Z,100157.60
2022-11-16T15:11:56.266Z,100159.20
2022-11-16T15:14:34.173Z,100160.20
2022-11-16T15:17:03.051Z,100162.80
2022-11-16T15:19:32.193Z,100166.00
2022-11-16T15:22:04.359Z,100166.40
2022-11-16T15:24:35.368Z,100161.00
2022-11-16T15:27:06.809Z,100159.80
2022-11-16T15:29:36.319Z,100158.20
2022-11-16T15:32:07.640Z,100158.40
2022-11-16T15:34:39.483Z,100159.40
2022-11-16T15:37:12.551Z,100155.20
2022-11-16T15:39:41.402Z,100161.20
2022-11-16T15:42:15.223Z,100152.80
2022-11-16T15:44:44.511Z,100155.60
2022-11-16T15:47:14.566Z,100157.40
2022-11-16T15:49:49.808Z,100164.60
2022-11-16T15:52:50.616Z,100163.40
2022-11-16T15:55:34.429Z,100162.00
2022-11-16T15:58:12.460Z,100162.60
2022-11-16T16:00:41.863Z,100160.60
2022-11-16T16:03:26.463Z,100158.20
2022-11-16T16:05:55.927Z,100160.80
2022-11-16T16:08:39.373Z,100161.20
2022-11-16T16:11:31.393Z,100169.60
2022-11-16T16:14:04.794Z,100165.40
2022-11-16T16:16:40.151Z,100160.00
2022-11-16T16:19:41.808Z,100157.60
2022-11-16T16:22:30.962Z,100156.80
2022-11-16T16:25:01.739Z,100156.40
2022-11-16T16:27:37.589Z,100154.40
2022-11-16T16:30:08.807Z,100160.20
2022-11-16T16:32:38.318Z,100163.00
2022-11-16T16:35:16.923Z,100168.00
2022-11-16T16:37:50.178Z,100166.60
2022-11-16T16:40:19.426Z,100170.60
2022-11-16T16:42:48.623Z,100163.00
2022-11-16T16:45:39.027Z,100166.00
2022-11-16T16:48:12.922Z,100163.00
2022-11-16T16:50:41.594Z,100154.20
2022-11-16T16:53:14.960Z,100157.80
2022-11-16T16:55:47.294Z,100152.20
2022-11-16T16:58:16.785Z,100156.00
2022-11-16T17:00:45.295Z,100155.40
2022-11-16T17:03:14.472Z,100167.00
2022-11-16T17:05:43.457Z,100162.20
2022-11-16T17:08:12.457Z,100158.60
2022-11-16T17:10:40.933Z,100156.00
2022-11-16T17:13:10.969Z,100157.00
2022-11-16T17:15:40.152Z,100154.40
2022-11-16T17:18:09.754Z,100160.20
2022-11-16T17:20:42.682Z,100159.80
2022-11-16T17:23:15.502Z,100162.60
2022-11-16T17:25:44.444Z,100162.20
2022-11-16T17:28:13.210Z,100165.60
2022-11-16T17:30:41.794Z,100169.80
2022-11-16T17:33:10.698Z,100163.20
2022-11-16T17:35:39.482Z,100167.60
2022-11-16T17:38:10.107Z,100164.20
2022-11-16T17:40:38.692Z,100175.80
2022-11-16T17:43:07.789Z,100163.60
2022-11-16T17:45:36.578Z,100163.40
2022-11-16T17:48:05.890Z,100167.40
2022-11-16T17:50:34.627Z,100164.40
2022-11-16T17:53:03.355Z,100168.80
2022-11-16T17:55:32.250Z,100164.20
2022-11-16T17:58:01.239Z,100165.20
2022-11-16T18:00:30.032Z,100158.60
2022-11-16T18:02:58.819Z,100160.00
2022-11-16T18:05:27.609Z,100156.60
2022-11-16T18:07:58.392Z,100161.60
2022-11-16T18:10:27.029Z,100160.80
2022-11-16T18:12:55.819Z,100166.20
2022-11-16T18:15:29.056Z,100171.40
2022-11-16T18:17:58.109Z,100169.80
2022-11-16T18:20:27.948Z,100170.60
2022-11-16T18:22:59.475Z,100175.80
2022-11-16T18:25:28.453Z,100175.00
2022-11-16T18:27:57.569Z,100175.40
2022-11-16T18:30:26.665Z,100182.40
2022-11-16T18:32:55.965Z,100180.00
2022-11-16T18:35:24.653Z,100174.40
2022-11-16T18:37:53.645Z,100176.80
2022-11-16T18:40:22.637Z,100184.60
2022-11-16T18:42:51.122Z,100188.60
2022-11-16T18:45:20.365Z,100187.60
2022-11-16T18:47:49.623Z,100187.00
2022-11-16T18:50:25.511Z,100186.60
2022-11-16T18:52:58.337Z,100181.20
2022-11-16T18:55:27.041Z,100181.80
2022-11-16T18:57:55.630Z,100189.60
2022-11-16T19:00:24.731Z,100188.40
2022-11-16T19:02:53.620Z,100193.80
2022-11-16T19:05:22.825Z,100188.20
2022-11-16T19:07:51.402Z,100191.00
2022-11-16T19:10:20.294Z,100192.20
2022-11-16T19:12:49.396Z,100190.60
2022-11-16T19:15:18.310Z,100190.00
2022-11-16T19:18:14.194Z,100189.40
2022-11-16T19:20:36.238Z,100187.00
2022-11-16T19:23:05.035Z,100187.00
2022-11-16T19:25:34.123Z,100189.00
2022-11-16T19:28:05.309Z,100196.00
2022-11-16T19:30:33.954Z,100189.20
2022-11-16T19:33:04.383Z,100193.40
2022-11-16T19:35:33.171Z,100191.80
2022-11-16T19:38:01.861Z,100203.80
2022-11-16T19:40:30.550Z,100198.60
2022-11-16T19:42:59.131Z,100204.60
2022-11-16T19:45:27.846Z,100207.20
2022-11-16T19:47:57.767Z,100203.20
2022-11-16T19:50:26.348Z,100205.00
2022-11-16T19:52:55.208Z,100207.20
2022-11-16T19:55:24.103Z,100206.20
2022-11-16T19:57:52.684Z,100209.00
2022-11-16T20:00:21.781Z,100212.20
2022-11-16T20:02:50.363Z,100211.00
2022-11-16T20:05:19.256Z,100214.40
2022-11-16T20:07:49.865Z,100207.80
2022-11-16T20:10:18.678Z,100210.20
2022-11-16T20:12:47.366Z,100208.20
2022-11-16T20:15:16.679Z,100210.20
2022-11-16T20:17:45.394Z,100210.40
2022-11-16T20:20:14.633Z,100212.00
2022-11-16T20:22:44.365Z,100215.00
2022-11-16T20:25:13.597Z,100209.60
2022-11-16T20:27:42.456Z,100212.00
2022-11-16T20:30:12.503Z,100212.00
2022-11-16T20:32:41.671Z,100220.40
2022-11-16T20:35:11.808Z,100224.20
2022-11-16T20:37:43.661Z,100219.00
2022-11-16T20:40:13.127Z,100225.80
2022-11-16T20:42:42.057Z,100226.20
2022-11-16T20:45:11.839Z,100226.40
2022-11-16T20:47:40.860Z,100216.80
2022-11-16T20:50:10.322Z,100217.60
2022-11-16T20:52:42.734Z,100227.40
2022-11-16T20:55:13.164Z,100224.60
2022-11-16T20:57:41.754Z,100233.80
2022-11-16T21:00:11.969Z,100231.40
2022-11-16T21:02:40.562Z,100228.40
2022-11-16T21:05:09.862Z,100227.00
2022-11-16T21:07:38.701Z,100219.00
2022-11-16T21:10:20.856Z,100227.00
2022-11-16T21:13:15.857Z,100223.00
2022-11-16T21:15:44.440Z,100221.80
2022-11-16T21:18:13.034Z,100225.60
2022-11-16T21:20:41.814Z,100230.60
2022-11-16T21:23:10.400Z,100232.00
2022-11-16T21:25:38.879Z,100225.00
2022-11-16T21:28:07.467Z,100222.40
2022-11-16T21:30:36.154Z,100225.40
2022-11-16T21:33:04.940Z,100230.40
2022-11-16T21:35:33.729Z,100230.40
2022-11-16T21:38:02.321Z,100229.80
2022-11-16T21:40:30.897Z,100228.20
2022-11-16T21:42:59.998Z,100224.60
2022-11-16T21:45:28.871Z,100225.80
2022-11-16T21:47:58.493Z,100226.40
2022-11-16T21:50:33.992Z,100233.80
2022-11-16T21:53:04.266Z,100240.00
2022-11-16T21:55:33.874Z,100244.00
2022-11-16T21:58:06.254Z,100238.80
2022-11-16T22:00:35.038Z,100238.00
2022-11-16T22:03:04.933Z,100235.80
2022-11-16T22:05:52.889Z,100238.20
2022-11-16T22:08:21.685Z,100240.00
2022-11-16T22:10:53.780Z,100243.20
2022-11-16T22:13:44.199Z,100242.20
2022-11-16T22:16:15.702Z,100242.00
2022-11-16T22:18:45.620Z,100241.60
2022-11-16T22:21:14.922Z,100250.00
2022-11-16T22:23:44.121Z,100250.00
2022-11-16T22:26:14.924Z,100248.40
2022-11-16T22:28:44.467Z,100240.80
2022-11-16T22:31:15.773Z,100246.40
2022-11-16T22:33:45.031Z,100239.60
2022-11-16T22:36:14.109Z,100244.80
2022-11-16T22:38:43.718Z,100244.60
2022-11-16T22:41:13.142Z,100248.00
2022-11-16T22:43:42.115Z,100251.60
2022-11-16T22:46:11.931Z,100250.60
2022-11-16T22:48:41.505Z,100249.20
2022-11-16T22:51:27.894Z,100249.60
2022-11-16T22:53:58.854Z,100253.60
2022-11-16T22:56:30.346Z,100258.40
2022-11-16T22:59:02.827Z,100260.40
2022-11-16T23:01:33.435Z,100264.00
2022-11-16T23:04:03.151Z,100255.40
2022-11-16T23:06:33.234Z,100258.00
2022-11-16T23:09:02.162Z,100250.20
2022-11-16T23:11:50.005Z,100254.60
2022-11-16T23:14:37.937Z,100252.60
2022-11-16T23:17:07.646Z,100253.20
2022-11-16T23:19:56.608Z,100248.40
2022-11-16T23:22:45.265Z,100246.00
2022-11-16T23:25:33.817Z,100250.00
2022-11-16T23:28:29.744Z,100251.60
2022-11-16T23:30:58.840Z,100247.80
2022-11-16T23:33:46.789Z,100246.40
2022-11-16T23:36:16.592Z,100243.20
2022-11-16T23:38:45.858Z,100239.60
2022-11-16T23:41:33.932Z,100233.40
2022-11-16T23:44:03.295Z,100234.80
2022-11-16T23:46:34.498Z,100231.20
2022-11-16T23:49:03.885Z,100223.60
2022-11-16T23:51:32.982Z,100224.80
2022-11-16T23:54:02.041Z,100222.60
2022-11-16T23:56:31.211Z,100219.40
2022-11-16T23:59:00.168Z,100219.00
